sensor_id;sensor_type;location;lat;lon;timestamp;P1;durP1;ratioP1;P2;durP2;ratioP2
8694;SDS011;65580;49.446;6.854;2023-02-07T00:06:59;6.18;;;2.78;;
8694;SDS011;65580;49.446;6.854;2023-02-07T00:11:23;5.90;;;2.80;;
8694;SDS011;65580;49.446;6.854;2023-02-07T00:15:28;6.70;;;2.47;;
8694;SDS011;65580;49.446;6.854;2023-02-07T00:19:35;5.38;;;2.70;;
8694;SDS011;65580;49.446;6.854;2023-02-07T00:23:43;5.30;;;2.63;;
8694;SDS011;65580;49.446;6.854;2023-02-07T00:27:49;3.92;;;2.05;;
8694;SDS011;65580;49.446;6.854;2023-02-07T00:31:58;5.28;;;2.53;;
8694;SDS011;65580;49.446;6.854;2023-02-07T00:36:04;6.30;;;2.90;;
8694;SDS011;65580;49.446;6.854;2023-02-07T00:40:10;6.07;;;2.60;;
8694;SDS011;65580;49.446;6.854;2023-02-07T00:44:16;5.55;;;2.92;;
8694;SDS011;65580;49.446;6.854;2023-02-07T00:48:22;6.13;;;2.70;;
8694;SDS011;65580;49.446;6.854;2023-02-07T00:52:26;7.75;;;3.25;;
8694;SDS011;65580;49.446;6.854;2023-02-07T00:56:31;5.82;;;2.38;;
8694;SDS011;65580;49.446;6.854;2023-02-07T01:00:37;4.53;;;2.60;;
8694;SDS011;65580;49.446;6.854;2023-02-07T01:04:54;4.78;;;2.60;;
8694;SDS011;65580;49.446;6.854;2023-02-07T01:09:06;5.47;;;2.80;;
8694;SDS011;65580;49.446;6.854;2023-02-07T01:17:18;5.93;;;2.92;;
8694;SDS011;65580;49.446;6.854;2023-02-07T01:21:28;5.95;;;2.67;;
8694;SDS011;65580;49.446;6.854;2023-02-07T01:25:33;5.82;;;2.85;;
8694;SDS011;65580;49.446;6.854;2023-02-07T01:29:43;6.30;;;2.92;;
8694;SDS011;65580;49.446;6.854;2023-02-07T01:33:51;5.88;;;3.05;;
8694;SDS011;65580;49.446;6.854;2023-02-07T01:38:07;6.40;;;2.92;;
8694;SDS011;65580;49.446;6.854;2023-02-07T01:42:29;5.30;;;2.60;;
8694;SDS011;65580;49.446;6.854;2023-02-07T01:46:52;5.57;;;2.90;;
8694;SDS011;65580;49.446;6.854;2023-02-07T01:51:03;7.82;;;3.00;;
8694;SDS011;65580;49.446;6.854;2023-02-07T01:55:21;5.95;;;2.70;;
8694;SDS011;65580;49.446;6.854;2023-02-07T01:59:40;4.25;;;2.75;;
8694;SDS011;65580;49.446;6.854;2023-02-07T02:03:48;7.55;;;2.72;;
8694;SDS011;65580;49.446;6.854;2023-02-07T02:07:55;6.22;;;3.10;;
8694;SDS011;65580;49.446;6.854;2023-02-07T02:16:33;6.70;;;2.85;;
8694;SDS011;65580;49.446;6.854;2023-02-07T02:21:00;6.53;;;2.85;;
8694;SDS011;65580;49.446;6.854;2023-02-07T02:30:32;6.22;;;2.92;;
8694;SDS011;65580;49.446;6.854;2023-02-07T02:34:45;5.82;;;2.83;;
8694;SDS011;65580;49.446;6.854;2023-02-07T02:39:07;6.30;;;2.90;;
8694;SDS011;65580;49.446;6.854;2023-02-07T02:43:30;6.32;;;3.00;;
8694;SDS011;65580;49.446;6.854;2023-02-07T02:47:41;6.22;;;3.00;;
8694;SDS011;65580;49.446;6.854;2023-02-07T02:51:53;5.88;;;2.88;;
8694;SDS011;65580;49.446;6.854;2023-02-07T02:56:04;6.07;;;2.92;;
8694;SDS011;65580;49.446;6.854;2023-02-07T03:00:50;7.28;;;2.75;;
8694;SDS011;65580;49.446;6.854;2023-02-07T03:05:18;4.57;;;2.63;;
8694;SDS011;65580;49.446;6.854;2023-02-07T03:09:36;7.15;;;3.35;;
8694;SDS011;65580;49.446;6.854;2023-02-07T03:13:52;4.07;;;2.28;;
8694;SDS011;65580;49.446;6.854;2023-02-07T03:18:04;4.43;;;2.35;;
8694;SDS011;65580;49.446;6.854;2023-02-07T03:22:12;5.28;;;2.75;;
8694;SDS011;65580;49.446;6.854;2023-02-07T03:26:27;4.05;;;2.53;;
8694;SDS011;65580;49.446;6.854;2023-02-07T03:30:33;6.18;;;3.00;;
8694;SDS011;65580;49.446;6.854;2023-02-07T03:34:39;5.53;;;2.70;;
8694;SDS011;65580;49.446;6.854;2023-02-07T03:38:51;6.82;;;2.80;;
8694;SDS011;65580;49.446;6.854;2023-02-07T03:42:58;5.18;;;2.70;;
8694;SDS011;65580;49.446;6.854;2023-02-07T03:47:07;5.90;;;2.50;;
8694;SDS011;65580;49.446;6.854;2023-02-07T03:51:13;4.18;;;2.40;;
8694;SDS011;65580;49.446;6.854;2023-02-07T03:55:27;5.13;;;2.95;;
8694;SDS011;65580;49.446;6.854;2023-02-07T03:59:50;4.43;;;2.50;;
8694;SDS011;65580;49.446;6.854;2023-02-07T04:03:53;5.93;;;2.90;;
8694;SDS011;65580;49.446;6.854;2023-02-07T04:07:58;4.25;;;2.38;;
8694;SDS011;65580;49.446;6.854;2023-02-07T04:12:01;5.78;;;2.92;;
8694;SDS011;65580;49.446;6.854;2023-02-07T04:20:21;5.15;;;2.88;;
8694;SDS011;65580;49.446;6.854;2023-02-07T04:24:24;5.55;;;2.88;;
8694;SDS011;65580;49.446;6.854;2023-02-07T04:28:27;6.55;;;2.70;;
8694;SDS011;65580;49.446;6.854;2023-02-07T04:32:32;3.83;;;2.60;;
8694;SDS011;65580;49.446;6.854;2023-02-07T04:36:38;5.70;;;3.05;;
8694;SDS011;65580;49.446;6.854;2023-02-07T04:40:42;4.80;;;2.92;;
8694;SDS011;65580;49.446;6.854;2023-02-07T04:44:46;6.00;;;3.38;;
8694;SDS011;65580;49.446;6.854;2023-02-07T04:48:54;6.07;;;3.00;;
8694;SDS011;65580;49.446;6.854;2023-02-07T04:52:59;6.25;;;2.83;;
8694;SDS011;65580;49.446;6.854;2023-02-07T04:57:09;7.80;;;3.88;;
8694;SDS011;65580;49.446;6.854;2023-02-07T05:01:15;7.97;;;3.42;;
8694;SDS011;65580;49.446;6.854;2023-02-07T05:05:19;6.97;;;3.40;;
8694;SDS011;65580;49.446;6.854;2023-02-07T05:09:24;7.05;;;3.45;;
8694;SDS011;65580;49.446;6.854;2023-02-07T05:13:32;6.90;;;3.55;;
8694;SDS011;65580;49.446;6.854;2023-02-07T05:17:39;7.13;;;3.50;;
8694;SDS011;65580;49.446;6.854;2023-02-07T05:21:46;6.78;;;3.05;;
8694;SDS011;65580;49.446;6.854;2023-02-07T05:25:51;7.82;;;3.53;;
8694;SDS011;65580;49.446;6.854;2023-02-07T05:29:57;8.35;;;3.90;;
8694;SDS011;65580;49.446;6.854;2023-02-07T05:34:02;7.60;;;3.67;;
8694;SDS011;65580;49.446;6.854;2023-02-07T05:38:10;6.10;;;3.25;;
8694;SDS011;65580;49.446;6.854;2023-02-07T05:42:18;5.82;;;2.97;;
8694;SDS011;65580;49.446;6.854;2023-02-07T05:46:22;9.55;;;3.88;;
8694;SDS011;65580;49.446;6.854;2023-02-07T05:50:26;8.18;;;3.97;;
8694;SDS011;65580;49.446;6.854;2023-02-07T05:58:36;7.60;;;3.60;;
8694;SDS011;65580;49.446;6.854;2023-02-07T06:02:41;10.20;;;4.03;;
8694;SDS011;65580;49.446;6.854;2023-02-07T06:11:00;9.18;;;4.22;;
8694;SDS011;65580;49.446;6.854;2023-02-07T06:15:07;11.27;;;4.72;;
8694;SDS011;65580;49.446;6.854;2023-02-07T06:19:16;8.95;;;4.13;;
8694;SDS011;65580;49.446;6.854;2023-02-07T06:23:20;9.90;;;4.75;;
8694;SDS011;65580;49.446;6.854;2023-02-07T06:27:27;8.60;;;4.10;;
8694;SDS011;65580;49.446;6.854;2023-02-07T06:31:37;10.35;;;4.32;;
8694;SDS011;65580;49.446;6.854;2023-02-07T06:35:42;8.23;;;4.25;;
8694;SDS011;65580;49.446;6.854;2023-02-07T06:39:48;9.35;;;4.22;;
8694;SDS011;65580;49.446;6.854;2023-02-07T06:43:56;9.48;;;4.18;;
8694;SDS011;65580;49.446;6.854;2023-02-07T06:48:00;8.30;;;4.40;;
8694;SDS011;65580;49.446;6.854;2023-02-07T06:52:05;9.45;;;4.53;;
8694;SDS011;65580;49.446;6.854;2023-02-07T06:56:10;10.45;;;4.50;;
8694;SDS011;65580;49.446;6.854;2023-02-07T07:00:17;8.95;;;4.40;;
8694;SDS011;65580;49.446;6.854;2023-02-07T07:04:21;9.23;;;4.18;;
8694;SDS011;65580;49.446;6.854;2023-02-07T07:08:25;8.52;;;4.20;;
8694;SDS011;65580;49.446;6.854;2023-02-07T07:12:29;9.30;;;4.57;;
8694;SDS011;65580;49.446;6.854;2023-02-07T07:20:44;7.95;;;4.30;;
8694;SDS011;65580;49.446;6.854;2023-02-07T07:24:53;10.23;;;4.47;;
8694;SDS011;65580;49.446;6.854;2023-02-07T07:28:57;10.43;;;4.97;;
8694;SDS011;65580;49.446;6.854;2023-02-07T07:33:05;10.85;;;4.63;;
8694;SDS011;65580;49.446;6.854;2023-02-07T07:37:10;8.05;;;4.13;;
8694;SDS011;65580;49.446;6.854;2023-02-07T07:41:21;10.90;;;4.55;;
8694;SDS011;65580;49.446;6.854;2023-02-07T07:45:27;11.13;;;5.00;;
8694;SDS011;65580;49.446;6.854;2023-02-07T07:49:32;10.05;;;4.70;;
8694;SDS011;65580;49.446;6.854;2023-02-07T07:53:35;10.63;;;4.93;;
8694;SDS011;65580;49.446;6.854;2023-02-07T07:57:40;12.45;;;4.60;;
8694;SDS011;65580;49.446;6.854;2023-02-07T08:05:50;11.30;;;5.10;;
8694;SDS011;65580;49.446;6.854;2023-02-07T08:09:54;10.43;;;4.82;;
8694;SDS011;65580;49.446;6.854;2023-02-07T08:14:00;10.82;;;4.90;;
8694;SDS011;65580;49.446;6.854;2023-02-07T08:18:04;11.48;;;4.95;;
8694;SDS011;65580;49.446;6.854;2023-02-07T08:22:09;9.85;;;4.78;;
8694;SDS011;65580;49.446;6.854;2023-02-07T08:26:15;10.32;;;4.85;;
8694;SDS011;65580;49.446;6.854;2023-02-07T08:30:28;10.73;;;4.90;;
8694;SDS011;65580;49.446;6.854;2023-02-07T08:34:34;11.63;;;5.15;;
8694;SDS011;65580;49.446;6.854;2023-02-07T08:38:48;10.27;;;5.00;;
8694;SDS011;65580;49.446;6.854;2023-02-07T08:42:53;10.60;;;5.45;;
8694;SDS011;65580;49.446;6.854;2023-02-07T08:46:58;9.48;;;4.63;;
8694;SDS011;65580;49.446;6.854;2023-02-07T08:51:04;10.65;;;4.57;;
8694;SDS011;65580;49.446;6.854;2023-02-07T08:55:16;10.48;;;4.85;;
8694;SDS011;65580;49.446;6.854;2023-02-07T08:59:19;10.60;;;5.28;;
8694;SDS011;65580;49.446;6.854;2023-02-07T09:03:23;12.05;;;5.18;;
8694;SDS011;65580;49.446;6.854;2023-02-07T09:07:35;12.70;;;5.25;;
8694;SDS011;65580;49.446;6.854;2023-02-07T09:11:41;10.38;;;5.07;;
8694;SDS011;65580;49.446;6.854;2023-02-07T09:15:45;9.13;;;3.97;;
8694;SDS011;65580;49.446;6.854;2023-02-07T09:19:54;10.73;;;5.22;;
8694;SDS011;65580;49.446;6.854;2023-02-07T09:24:00;9.65;;;4.50;;
8694;SDS011;65580;49.446;6.854;2023-02-07T09:28:05;10.82;;;5.75;;
8694;SDS011;65580;49.446;6.854;2023-02-07T09:36:15;10.00;;;5.03;;
8694;SDS011;65580;49.446;6.854;2023-02-07T09:40:23;7.38;;;4.32;;
8694;SDS011;65580;49.446;6.854;2023-02-07T09:44:31;9.98;;;4.38;;
8694;SDS011;65580;49.446;6.854;2023-02-07T09:52:51;9.38;;;4.10;;
8694;SDS011;65580;49.446;6.854;2023-02-07T09:56:57;8.50;;;4.38;;
8694;SDS011;65580;49.446;6.854;2023-02-07T10:01:05;10.73;;;4.78;;
8694;SDS011;65580;49.446;6.854;2023-02-07T10:05:13;8.75;;;4.90;;
8694;SDS011;65580;49.446;6.854;2023-02-07T10:09:20;9.05;;;4.80;;
8694;SDS011;65580;49.446;6.854;2023-02-07T10:13:37;8.48;;;4.47;;
8694;SDS011;65580;49.446;6.854;2023-02-07T10:17:51;11.00;;;4.43;;
8694;SDS011;65580;49.446;6.854;2023-02-07T10:22:06;8.57;;;4.22;;
8694;SDS011;65580;49.446;6.854;2023-02-07T10:26:26;10.52;;;4.40;;
8694;SDS011;65580;49.446;6.854;2023-02-07T10:30:33;13.95;;;5.13;;
8694;SDS011;65580;49.446;6.854;2023-02-07T10:34:43;8.00;;;4.28;;
8694;SDS011;65580;49.446;6.854;2023-02-07T10:38:54;9.13;;;4.70;;
8694;SDS011;65580;49.446;6.854;2023-02-07T10:43:18;8.73;;;4.80;;
8694;SDS011;65580;49.446;6.854;2023-02-07T10:47:29;9.77;;;4.57;;
8694;SDS011;65580;49.446;6.854;2023-02-07T10:51:44;9.02;;;5.00;;
8694;SDS011;65580;49.446;6.854;2023-02-07T10:55:47;10.07;;;4.60;;
8694;SDS011;65580;49.446;6.854;2023-02-07T11:00:01;7.88;;;4.30;;
8694;SDS011;65580;49.446;6.854;2023-02-07T11:04:20;9.23;;;4.65;;
8694;SDS011;65580;49.446;6.854;2023-02-07T11:08:35;9.82;;;4.85;;
8694;SDS011;65580;49.446;6.854;2023-02-07T11:12:44;8.52;;;4.63;;
8694;SDS011;65580;49.446;6.854;2023-02-07T11:16:53;10.73;;;5.10;;
8694;SDS011;65580;49.446;6.854;2023-02-07T11:20:56;11.93;;;5.32;;
8694;SDS011;65580;49.446;6.854;2023-02-07T11:25:01;8.93;;;4.93;;
8694;SDS011;65580;49.446;6.854;2023-02-07T11:29:12;11.48;;;4.93;;
8694;SDS011;65580;49.446;6.854;2023-02-07T11:33:18;9.23;;;4.63;;
8694;SDS011;65580;49.446;6.854;2023-02-07T11:37:27;11.48;;;4.50;;
8694;SDS011;65580;49.446;6.854;2023-02-07T11:41:51;13.55;;;4.30;;
8694;SDS011;65580;49.446;6.854;2023-02-07T11:45:58;7.30;;;3.53;;
8694;SDS011;65580;49.446;6.854;2023-02-07T11:50:10;9.02;;;4.43;;
8694;SDS011;65580;49.446;6.854;2023-02-07T11:54:24;8.85;;;4.38;;
8694;SDS011;65580;49.446;6.854;2023-02-07T11:58:35;10.98;;;4.32;;
8694;SDS011;65580;49.446;6.854;2023-02-07T12:02:48;8.52;;;4.05;;
8694;SDS011;65580;49.446;6.854;2023-02-07T12:06:56;9.13;;;4.32;;
8694;SDS011;65580;49.446;6.854;2023-02-07T12:11:04;10.00;;;4.45;;
8694;SDS011;65580;49.446;6.854;2023-02-07T12:15:20;10.90;;;5.10;;
8694;SDS011;65580;49.446;6.854;2023-02-07T12:19:28;8.95;;;4.60;;
8694;SDS011;65580;49.446;6.854;2023-02-07T12:23:37;7.45;;;3.90;;
8694;SDS011;65580;49.446;6.854;2023-02-07T12:27:46;7.57;;;4.35;;
8694;SDS011;65580;49.446;6.854;2023-02-07T12:31:56;7.72;;;4.00;;
8694;SDS011;65580;49.446;6.854;2023-02-07T12:36:11;8.98;;;4.03;;
8694;SDS011;65580;49.446;6.854;2023-02-07T12:40:20;7.95;;;3.72;;
8694;SDS011;65580;49.446;6.854;2023-02-07T12:44:29;9.98;;;4.32;;
8694;SDS011;65580;49.446;6.854;2023-02-07T12:48:42;5.88;;;3.03;;
8694;SDS011;65580;49.446;6.854;2023-02-07T12:53:02;8.68;;;4.50;;
8694;SDS011;65580;49.446;6.854;2023-02-07T12:57:18;9.77;;;4.65;;
8694;SDS011;65580;49.446;6.854;2023-02-07T13:01:28;4.63;;;2.80;;
8694;SDS011;65580;49.446;6.854;2023-02-07T13:05:45;9.25;;;4.25;;
8694;SDS011;65580;49.446;6.854;2023-02-07T13:10:10;9.05;;;4.43;;
8694;SDS011;65580;49.446;6.854;2023-02-07T13:14:27;7.78;;;4.30;;
8694;SDS011;65580;49.446;6.854;2023-02-07T13:18:38;8.63;;;3.78;;
8694;SDS011;65580;49.446;6.854;2023-02-07T13:22:51;8.25;;;4.53;;
8694;SDS011;65580;49.446;6.854;2023-02-07T13:27:04;9.38;;;4.18;;
8694;SDS011;65580;49.446;6.854;2023-02-07T13:31:20;9.77;;;4.35;;
8694;SDS011;65580;49.446;6.854;2023-02-07T13:35:31;7.95;;;4.03;;
8694;SDS011;65580;49.446;6.854;2023-02-07T13:39:44;8.02;;;3.80;;
8694;SDS011;65580;49.446;6.854;2023-02-07T13:43:53;9.98;;;4.32;;
8694;SDS011;65580;49.446;6.854;2023-02-07T13:48:20;8.77;;;3.90;;
8694;SDS011;65580;49.446;6.854;2023-02-07T13:52:33;9.73;;;4.30;;
8694;SDS011;65580;49.446;6.854;2023-02-07T13:56:56;7.05;;;3.92;;
8694;SDS011;65580;49.446;6.854;2023-02-07T14:01:22;7.43;;;3.28;;
8694;SDS011;65580;49.446;6.854;2023-02-07T14:05:28;7.57;;;3.60;;
8694;SDS011;65580;49.446;6.854;2023-02-07T14:09:33;8.13;;;3.92;;
8694;SDS011;65580;49.446;6.854;2023-02-07T14:13:42;8.25;;;3.80;;
8694;SDS011;65580;49.446;6.854;2023-02-07T14:17:56;7.65;;;3.70;;
8694;SDS011;65580;49.446;6.854;2023-02-07T14:22:14;7.93;;;3.83;;
8694;SDS011;65580;49.446;6.854;2023-02-07T14:31:20;8.85;;;4.20;;
8694;SDS011;65580;49.446;6.854;2023-02-07T14:35:34;8.63;;;3.70;;
8694;SDS011;65580;49.446;6.854;2023-02-07T14:39:38;11.35;;;4.10;;
8694;SDS011;65580;49.446;6.854;2023-02-07T14:43:49;7.45;;;3.60;;
8694;SDS011;65580;49.446;6.854;2023-02-07T14:52:35;7.28;;;3.78;;
8694;SDS011;65580;49.446;6.854;2023-02-07T14:56:49;8.40;;;3.80;;
8694;SDS011;65580;49.446;6.854;2023-02-07T15:01:09;7.50;;;3.90;;
8694;SDS011;65580;49.446;6.854;2023-02-07T15:05:27;11.20;;;4.18;;
8694;SDS011;65580;49.446;6.854;2023-02-07T15:09:36;8.43;;;3.72;;
8694;SDS011;65580;49.446;6.854;2023-02-07T15:13:45;7.22;;;4.10;;
8694;SDS011;65580;49.446;6.854;2023-02-07T15:18:10;6.97;;;3.33;;
8694;SDS011;65580;49.446;6.854;2023-02-07T15:22:23;6.40;;;3.33;;
8694;SDS011;65580;49.446;6.854;2023-02-07T15:26:32;8.40;;;3.75;;
8694;SDS011;65580;49.446;6.854;2023-02-07T15:30:40;9.02;;;3.67;;
8694;SDS011;65580;49.446;6.854;2023-02-07T15:35:16;6.80;;;3.47;;
8694;SDS011;65580;49.446;6.854;2023-02-07T15:39:22;6.88;;;3.25;;
8694;SDS011;65580;49.446;6.854;2023-02-07T15:43:28;9.75;;;3.88;;
8694;SDS011;65580;49.446;6.854;2023-02-07T15:47:55;9.15;;;3.80;;
8694;SDS011;65580;49.446;6.854;2023-02-07T15:52:09;6.63;;;3.50;;
8694;SDS011;65580;49.446;6.854;2023-02-07T15:56:16;6.93;;;3.47;;
8694;SDS011;65580;49.446;6.854;2023-02-07T16:04:43;9.98;;;4.20;;
8694;SDS011;65580;49.446;6.854;2023-02-07T16:09:02;9.73;;;3.88;;
8694;SDS011;65580;49.446;6.854;2023-02-07T16:13:16;8.30;;;3.75;;
8694;SDS011;65580;49.446;6.854;2023-02-07T16:17:37;11.35;;;3.83;;
8694;SDS011;65580;49.446;6.854;2023-02-07T16:21:59;9.25;;;3.97;;
8694;SDS011;65580;49.446;6.854;2023-02-07T16:26:13;11.77;;;4.10;;
8694;SDS011;65580;49.446;6.854;2023-02-07T16:30:20;7.47;;;3.90;;
8694;SDS011;65580;49.446;6.854;2023-02-07T16:34:30;10.77;;;4.30;;
8694;SDS011;65580;49.446;6.854;2023-02-07T16:39:00;9.25;;;3.97;;
8694;SDS011;65580;49.446;6.854;2023-02-07T16:43:06;8.35;;;3.70;;
8694;SDS011;65580;49.446;6.854;2023-02-07T16:47:11;9.68;;;4.63;;
8694;SDS011;65580;49.446;6.854;2023-02-07T16:51:16;12.35;;;4.65;;
8694;SDS011;65580;49.446;6.854;2023-02-07T16:59:42;10.35;;;4.00;;
8694;SDS011;65580;49.446;6.854;2023-02-07T17:04:03;8.70;;;4.18;;
8694;SDS011;65580;49.446;6.854;2023-02-07T17:08:12;8.27;;;3.83;;
8694;SDS011;65580;49.446;6.854;2023-02-07T17:12:18;8.32;;;3.95;;
8694;SDS011;65580;49.446;6.854;2023-02-07T17:16:28;9.32;;;4.07;;
8694;SDS011;65580;49.446;6.854;2023-02-07T17:20:39;8.60;;;4.15;;
8694;SDS011;65580;49.446;6.854;2023-02-07T17:24:46;12.65;;;4.70;;
8694;SDS011;65580;49.446;6.854;2023-02-07T17:28:51;11.02;;;5.15;;
8694;SDS011;65580;49.446;6.854;2023-02-07T17:33:08;9.63;;;4.40;;
8694;SDS011;65580;49.446;6.854;2023-02-07T17:37:27;9.68;;;4.10;;
8694;SDS011;65580;49.446;6.854;2023-02-07T17:41:36;11.25;;;4.30;;
8694;SDS011;65580;49.446;6.854;2023-02-07T17:45:43;10.95;;;4.60;;
8694;SDS011;65580;49.446;6.854;2023-02-07T17:49:51;12.90;;;4.93;;
8694;SDS011;65580;49.446;6.854;2023-02-07T17:53:56;9.93;;;4.15;;
8694;SDS011;65580;49.446;6.854;2023-02-07T17:58:00;10.18;;;4.45;;
8694;SDS011;65580;49.446;6.854;2023-02-07T18:02:09;11.57;;;4.68;;
8694;SDS011;65580;49.446;6.854;2023-02-07T18:06:37;14.30;;;5.55;;
8694;SDS011;65580;49.446;6.854;2023-02-07T18:10:42;11.25;;;5.13;;
8694;SDS011;65580;49.446;6.854;2023-02-07T18:14:50;13.13;;;5.05;;
8694;SDS011;65580;49.446;6.854;2023-02-07T18:19:04;11.52;;;4.72;;
8694;SDS011;65580;49.446;6.854;2023-02-07T18:23:17;12.75;;;5.10;;
8694;SDS011;65580;49.446;6.854;2023-02-07T18:27:37;13.98;;;5.63;;
8694;SDS011;65580;49.446;6.854;2023-02-07T18:35:46;14.88;;;5.93;;
8694;SDS011;65580;49.446;6.854;2023-02-07T18:39:56;13.00;;;5.63;;
8694;SDS011;65580;49.446;6.854;2023-02-07T18:44:04;11.95;;;5.45;;
8694;SDS011;65580;49.446;6.854;2023-02-07T18:48:14;9.45;;;5.00;;
8694;SDS011;65580;49.446;6.854;2023-02-07T18:52:21;14.52;;;5.18;;
8694;SDS011;65580;49.446;6.854;2023-02-07T18:56:33;12.80;;;5.40;;
8694;SDS011;65580;49.446;6.854;2023-02-07T19:00:51;11.25;;;4.85;;
8694;SDS011;65580;49.446;6.854;2023-02-07T19:05:09;12.32;;;5.75;;
8694;SDS011;65580;49.446;6.854;2023-02-07T19:09:16;13.27;;;5.25;;
8694;SDS011;65580;49.446;6.854;2023-02-07T19:13:28;15.30;;;5.65;;
8694;SDS011;65580;49.446;6.854;2023-02-07T19:17:36;15.18;;;6.32;;
8694;SDS011;65580;49.446;6.854;2023-02-07T19:21:48;13.38;;;5.57;;
8694;SDS011;65580;49.446;6.854;2023-02-07T19:26:06;12.55;;;5.63;;
8694;SDS011;65580;49.446;6.854;2023-02-07T19:30:22;11.40;;;5.70;;
8694;SDS011;65580;49.446;6.854;2023-02-07T19:34:26;14.10;;;5.72;;
8694;SDS011;65580;49.446;6.854;2023-02-07T19:38:29;15.00;;;5.53;;
8694;SDS011;65580;49.446;6.854;2023-02-07T19:42:33;13.00;;;5.88;;
8694;SDS011;65580;49.446;6.854;2023-02-07T19:46:44;15.80;;;6.65;;
8694;SDS011;65580;49.446;6.854;2023-02-07T19:51:02;14.57;;;5.68;;
8694;SDS011;65580;49.446;6.854;2023-02-07T19:55:06;14.10;;;5.95;;
8694;SDS011;65580;49.446;6.854;2023-02-07T19:59:12;17.23;;;7.35;;
8694;SDS011;65580;49.446;6.854;2023-02-07T20:03:21;14.82;;;6.57;;
8694;SDS011;65580;49.446;6.854;2023-02-07T20:07:25;14.57;;;6.22;;
8694;SDS011;65580;49.446;6.854;2023-02-07T20:11:35;14.10;;;6.32;;
8694;SDS011;65580;49.446;6.854;2023-02-07T20:15:41;14.63;;;5.72;;
8694;SDS011;65580;49.446;6.854;2023-02-07T20:19:48;11.95;;;5.85;;
8694;SDS011;65580;49.446;6.854;2023-02-07T20:23:52;16.35;;;6.15;;
8694;SDS011;65580;49.446;6.854;2023-02-07T20:27:57;14.13;;;6.03;;
8694;SDS011;65580;49.446;6.854;2023-02-07T20:32:00;16.20;;;7.03;;
8694;SDS011;65580;49.446;6.854;2023-02-07T20:36:10;15.10;;;6.50;;
8694;SDS011;65580;49.446;6.854;2023-02-07T20:40:15;14.15;;;6.15;;
8694;SDS011;65580;49.446;6.854;2023-02-07T20:44:19;15.05;;;6.13;;
8694;SDS011;65580;49.446;6.854;2023-02-07T20:48:27;15.38;;;6.05;;
8694;SDS011;65580;49.446;6.854;2023-02-07T20:52:35;15.90;;;6.70;;
8694;SDS011;65580;49.446;6.854;2023-02-07T20:56:39;16.83;;;6.60;;
8694;SDS011;65580;49.446;6.854;2023-02-07T21:00:42;16.58;;;6.72;;
8694;SDS011;65580;49.446;6.854;2023-02-07T21:04:46;17.75;;;6.82;;
8694;SDS011;65580;49.446;6.854;2023-02-07T21:08:51;16.50;;;6.25;;
8694;SDS011;65580;49.446;6.854;2023-02-07T21:13:02;15.93;;;6.95;;
8694;SDS011;65580;49.446;6.854;2023-02-07T21:17:06;15.50;;;5.55;;
8694;SDS011;65580;49.446;6.854;2023-02-07T21:21:11;13.25;;;6.40;;
8694;SDS011;65580;49.446;6.854;2023-02-07T21:25:17;14.35;;;5.85;;
8694;SDS011;65580;49.446;6.854;2023-02-07T21:29:21;14.82;;;6.40;;
8694;SDS011;65580;49.446;6.854;2023-02-07T21:33:27;15.15;;;6.32;;
8694;SDS011;65580;49.446;6.854;2023-02-07T21:37:31;17.67;;;7.20;;
8694;SDS011;65580;49.446;6.854;2023-02-07T21:41:38;16.08;;;6.35;;
8694;SDS011;65580;49.446;6.854;2023-02-07T21:45:45;14.68;;;6.45;;
8694;SDS011;65580;49.446;6.854;2023-02-07T21:49:49;16.88;;;6.47;;
8694;SDS011;65580;49.446;6.854;2023-02-07T21:53:55;14.93;;;6.03;;
8694;SDS011;65580;49.446;6.854;2023-02-07T21:58:04;14.05;;;6.57;;
8694;SDS011;65580;49.446;6.854;2023-02-07T22:02:10;16.02;;;6.20;;
8694;SDS011;65580;49.446;6.854;2023-02-07T22:06:15;14.10;;;5.88;;
8694;SDS011;65580;49.446;6.854;2023-02-07T22:10:20;17.15;;;6.55;;
8694;SDS011;65580;49.446;6.854;2023-02-07T22:14:26;15.38;;;6.07;;
8694;SDS011;65580;49.446;6.854;2023-02-07T22:18:32;14.43;;;5.82;;
8694;SDS011;65580;49.446;6.854;2023-02-07T22:22:36;15.20;;;5.63;;
8694;SDS011;65580;49.446;6.854;2023-02-07T22:26:40;13.77;;;5.43;;
8694;SDS011;65580;49.446;6.854;2023-02-07T22:30:55;16.25;;;6.15;;
8694;SDS011;65580;49.446;6.854;2023-02-07T22:35:14;15.40;;;6.18;;
8694;SDS011;65580;49.446;6.854;2023-02-07T22:39:18;12.27;;;6.05;;
8694;SDS011;65580;49.446;6.854;2023-02-07T22:43:32;17.60;;;6.47;;
8694;SDS011;65580;49.446;6.854;2023-02-07T22:47:39;14.35;;;5.13;;
8694;SDS011;65580;49.446;6.854;2023-02-07T22:51:45;14.57;;;6.22;;
8694;SDS011;65580;49.446;6.854;2023-02-07T22:55:51;15.52;;;6.80;;
8694;SDS011;65580;49.446;6.854;2023-02-07T22:59:59;15.27;;;6.32;;
8694;SDS011;65580;49.446;6.854;2023-02-07T23:04:11;4.07;;;2.40;;
8694;SDS011;65580;49.446;6.854;2023-02-07T23:08:18;19.48;;;7.20;;
8694;SDS011;65580;49.446;6.854;2023-02-07T23:12:23;18.27;;;6.65;;
8694;SDS011;65580;49.446;6.854;2023-02-07T23:21:00;14.85;;;6.18;;
8694;SDS011;65580;49.446;6.854;2023-02-07T23:25:05;17.38;;;5.40;;
8694;SDS011;65580;49.446;6.854;2023-02-07T23:29:20;13.52;;;5.70;;
8694;SDS011;65580;49.446;6.854;2023-02-07T23:33:28;16.67;;;6.22;;
8694;SDS011;65580;49.446;6.854;2023-02-07T23:37:35;15.88;;;5.97;;
8694;SDS011;65580;49.446;6.854;2023-02-07T23:41:41;19.30;;;6.40;;
8694;SDS011;65580;49.446;6.854;2023-02-07T23:45:45;19.52;;;8.27;;
8694;SDS011;65580;49.446;6.854;2023-02-07T23:49:54;16.08;;;6.65;;
8694;SDS011;65580;49.446;6.854;2023-02-07T23:54:00;18.50;;;8.35;;
8694;SDS011;65580;49.446;6.854;2023-02-07T23:58:07;15.02;;;5.60;;
